Time,TemperatureF,DewpointF,PressureIn,WindDirection,WindDirectionDegrees,WindSpeedMPH,WindSpeedGustMPH,Humidity,HourlyPrecipIn,Conditions,Clouds,dailyrainin,SoftwareType,DateUTC
2013-02-01 00:00:00,30.0,16.2,29.94,SW,216,0.0,0.0,56,0.00,,---,0.40,VWS V14.01,2013-02-01 05:00:00,
2013-02-01 00:01:00,29.9,16.1,29.94,SW,215,0.0,0.0,56,0.00,,---,0.40,VWS V14.01,2013-02-01 05:01:00,
2013-02-01 00:06:00,29.8,16.0,29.94,SE,132,0.0,1.0,56,0.00,,---,0.00,VWS V14.01,2013-02-01 05:06:00,
2013-02-01 00:11:00,29.8,16.0,29.93,East,98,0.0,1.0,56,0.00,,---,0.00,VWS V14.01,2013-02-01 05:11:00,
2013-02-01 00:16:00,29.7,15.5,29.93,East,98,0.0,1.0,55,0.00,,---,0.00,VWS V14.01,2013-02-01 05:16:00,
2013-02-01 00:21:00,29.7,15.5,29.93,East,98,0.0,1.0,55,0.00,,---,0.00,VWS V14.01,2013-02-01 05:21:00,
2013-02-01 00:26:00,29.5,15.8,29.92,East,98,0.0,1.0,56,0.00,,---,0.00,VWS V14.01,2013-02-01 05:26:00,
2013-02-01 00:31:00,29.3,15.6,29.92,East,98,0.0,1.0,56,0.00,,---,0.00,VWS V14.01,2013-02-01 05:31:00,
2013-02-01 00:36:00,29.0,15.7,29.92,East,98,0.0,0.0,57,0.00,,---,0.00,VWS V14.01,2013-02-01 05:36:00,
2013-02-01 00:41:00,28.7,15.8,29.92,East,98,0.0,0.0,58,0.00,,---,0.00,VWS V14.01,2013-02-01 05:41:00,
2013-02-01 00:46:00,28.5,16.8,29.92,East,98,0.0,0.0,61,0.00,,---,0.00,VWS V14.01,2013-02-01 05:46:00,
2013-02-01 00:51:00,28.2,16.1,29.91,East,99,0.0,0.0,60,0.00,,---,0.00,VWS V14.01,2013-02-01 05:51:00,
2013-02-01 00:56:00,27.9,15.8,29.92,East,99,0.0,0.0,60,0.00,,---,0.00,VWS V14.01,2013-02-01 05:56:00,
2013-02-01 01:01:00,27.6,15.9,29.92,East,98,0.0,0.0,61,0.00,,---,0.00,VWS V14.01,2013-02-01 06:01:00,
2013-02-01 01:06:00,27.5,16.6,29.92,East,98,0.0,0.0,63,0.00,,---,0.00,VWS V14.01,2013-02-01 06:06:00,
2013-02-01 01:11:00,27.2,17.0,29.92,East,98,0.0,0.0,65,0.00,,---,0.00,VWS V14.01,2013-02-01 06:11:00,
2013-02-01 01:16:00,27.0,16.8,29.92,East,98,0.0,0.0,65,0.00,,---,0.00,VWS V14.01,2013-02-01 06:16:00,
2013-02-01 01:21:00,26.9,16.7,29.92,East,98,0.0,0.0,65,0.00,,---,0.00,VWS V14.01,2013-02-01 06:21:00,
2013-02-01 01:26:00,26.7,16.5,29.92,East,98,0.0,0.0,65,0.00,,---,0.00,VWS V14.01,2013-02-01 06:26:00,
2013-02-01 01:31:00,26.8,16.6,29.92,East,98,0.0,0.0,65,0.00,,---,0.00,VWS V14.01,2013-02-01 06:31:00,
2013-02-01 01:36:00,27.0,17.2,29.92,East,98,0.0,0.0,66,0.00,,---,0.00,VWS V14.01,2013-02-01 06:36:00,
2013-02-01 01:41:00,27.2,17.0,29.92,East,100,1.0,1.0,65,0.00,,---,0.00,VWS V14.01,2013-02-01 06:41:00,
2013-02-01 01:46:00,27.8,17.2,29.92,East,100,0.0,1.0,64,0.00,,---,0.00,VWS V14.01,2013-02-01 06:46:00,
2013-02-01 01:51:00,28.3,17.0,29.92,East,100,0.0,1.0,62,0.00,,---,0.00,VWS V14.01,2013-02-01 06:51:00,
2013-02-01 01:56:00,28.8,17.4,29.92,East,100,0.0,1.0,62,0.00,,---,0.00,VWS V14.01,2013-02-01 06:56:00,
2013-02-01 02:01:00,29.2,17.4,29.92,SW,215,0.0,1.0,61,0.00,,---,0.00,VWS V14.01,2013-02-01 07:01:00,
2013-02-01 02:06:00,29.7,17.1,29.92,SE,138,0.0,3.0,59,0.00,,---,0.00,VWS V14.01,2013-02-01 07:06:00,
2013-02-01 02:11:00,30.2,17.2,29.92,SE,132,2.0,3.0,58,0.00,,---,0.00,VWS V14.01,2013-02-01 07:11:00,
2013-02-01 02:16:00,30.6,17.2,29.92,SE,132,0.0,3.0,57,0.00,,---,0.00,VWS V14.01,2013-02-01 07:16:00,
2013-02-01 02:21:00,30.8,17.0,29.91,SW,217,0.0,3.0,56,0.00,,---,0.00,VWS V14.01,2013-02-01 07:21:00,
2013-02-01 02:26:00,30.9,17.5,29.91,SE,138,4.0,4.0,57,0.00,,---,0.00,VWS V14.01,2013-02-01 07:26:00,
2013-02-01 02:31:00,31.1,17.7,29.90,SE,132,0.0,4.0,57,0.00,,---,0.00,VWS V14.01,2013-02-01 07:31:00,
2013-02-01 02:36:00,31.2,17.3,29.90,SE,133,0.0,1.0,56,0.00,,---,0.00,VWS V14.01,2013-02-01 07:36:00,
2013-02-01 02:41:00,31.2,17.3,29.90,SSE,166,0.0,2.0,56,0.00,,---,0.00,VWS V14.01,2013-02-01 07:41:00,
2013-02-01 02:46:00,31.2,18.2,29.89,SSE,164,0.0,2.0,58,0.00,,---,0.00,VWS V14.01,2013-02-01 07:46:00,
2013-02-01 02:51:00,31.2,18.2,29.89,SSE,163,0.0,2.0,58,0.00,,---,0.00,VWS V14.01,2013-02-01 07:51:00,
2013-02-01 02:56:00,31.1,17.7,29.89,SSE,163,0.0,2.0,57,0.00,,---,0.00,VWS V14.01,2013-02-01 07:56:00,
2013-02-01 03:01:00,31.0,18.0,29.89,SSE,163,0.0,2.0,58,0.00,,---,0.00,VWS V14.01,2013-02-01 08:01:00,
2013-02-01 03:06:00,31.0,18.0,29.89,SSE,163,0.0,1.0,58,0.00,,---,0.00,VWS V14.01,2013-02-01 08:06:00,
2013-02-01 03:11:00,31.1,18.1,29.89,SSE,164,0.0,1.0,58,0.00,,---,0.00,VWS V14.01,2013-02-01 08:11:00,
2013-02-01 03:16:00,31.2,18.5,29.88,SSE,163,0.0,1.0,59,0.00,,---,0.00,VWS V14.01,2013-02-01 08:16:00,
2013-02-01 03:21:00,31.2,18.5,29.88,SSE,163,0.0,1.0,59,0.00,,---,0.00,VWS V14.01,2013-02-01 08:21:00,
2013-02-01 03:26:00,31.3,18.6,29.88,SE,136,0.0,1.0,59,0.00,,---,0.00,VWS V14.01,2013-02-01 08:26:00,
2013-02-01 03:31:00,31.3,19.0,29.87,SE,135,0.0,1.0,60,0.00,,---,0.00,VWS V14.01,2013-02-01 08:31:00,
2013-02-01 03:36:00,31.4,19.1,29.87,SE,135,0.0,1.0,60,0.00,,---,0.00,VWS V14.01,2013-02-01 08:36:00,
2013-02-01 03:41:00,31.4,19.1,29.87,SE,136,0.0,1.0,60,0.00,,---,0.00,VWS V14.01,2013-02-01 08:41:00,
2013-02-01 03:46:00,31.5,19.6,29.86,SE,136,0.0,1.0,61,0.00,,---,0.00,VWS V14.01,2013-02-01 08:46:00,
2013-02-01 03:51:00,31.6,19.3,29.86,SE,135,0.0,1.0,60,0.00,,---,0.00,VWS V14.01,2013-02-01 08:51:00,
2013-02-01 03:56:00,31.6,19.7,29.85,SE,135,0.0,1.0,61,0.00,,---,0.00,VWS V14.01,2013-02-01 08:56:00,
2013-02-01 04:01:00,31.7,20.2,29.85,SE,135,0.0,1.0,62,0.00,,---,0.00,VWS V14.01,2013-02-01 09:01:00,
2013-02-01 04:06:00,31.8,19.9,29.85,SE,129,1.0,2.0,61,0.00,,---,0.00,VWS V14.01,2013-02-01 09:06:00,
2013-02-01 04:11:00,32.0,20.1,29.85,SE,137,0.0,3.0,61,0.00,,---,0.00,VWS V14.01,2013-02-01 09:11:00,
2013-02-01 04:16:00,32.1,20.2,29.85,SE,141,0.0,3.0,61,0.00,,---,0.00,VWS V14.01,2013-02-01 09:16:00,
2013-02-01 04:21:00,32.2,20.7,29.85,SE,142,0.0,3.0,62,0.00,,---,0.00,VWS V14.01,2013-02-01 09:21:00,
2013-02-01 04:26:00,32.3,20.4,29.85,SE,142,0.0,3.0,61,0.00,,---,0.00,VWS V14.01,2013-02-01 09:26:00,
2013-02-01 04:31:00,32.3,20.8,29.85,SE,144,0.0,3.0,62,0.00,,---,0.00,VWS V14.01,2013-02-01 09:31:00,
2013-02-01 04:36:00,32.5,20.9,29.84,SE,142,0.0,1.0,62,0.00,,---,0.00,VWS V14.01,2013-02-01 09:36:00,
2013-02-01 04:41:00,32.6,21.4,29.84,SE,143,0.0,1.0,63,0.00,,---,0.00,VWS V14.01,2013-02-01 09:41:00,
2013-02-01 04:46:00,32.9,22.1,29.84,WNW,287,0.0,3.0,64,0.00,,---,0.00,VWS V14.01,2013-02-01 09:46:00,
2013-02-01 04:51:00,33.3,22.1,29.84,WNW,298,0.0,3.0,63,0.00,,---,0.00,VWS V14.01,2013-02-01 09:51:00,
2013-02-01 04:56:00,33.5,22.3,29.84,East,98,2.0,3.0,63,0.00,,---,0.00,VWS V14.01,2013-02-01 09:56:00,
2013-02-01 05:01:00,33.7,21.7,29.84,SW,224,1.0,3.0,61,0.00,,---,0.00,VWS V14.01,2013-02-01 10:01:00,
2013-02-01 05:06:00,33.7,22.5,29.84,SSW,200,1.0,3.0,63,0.00,,---,0.00,VWS V14.01,2013-02-01 10:06:00,
2013-02-01 05:11:00,33.7,22.8,29.84,SE,127,0.0,4.0,64,0.00,,---,0.00,VWS V14.01,2013-02-01 10:11:00,
2013-02-01 05:16:00,33.8,23.3,29.84,SSE,149,2.0,4.0,65,0.00,,---,0.00,VWS V14.01,2013-02-01 10:16:00,
2013-02-01 05:21:00,33.7,23.6,29.85,WSW,238,2.0,4.0,66,0.00,,---,0.00,VWS V14.01,2013-02-01 10:21:00,
2013-02-01 05:26:00,33.7,24.3,29.85,West,278,1.0,6.0,68,0.00,,---,0.00,VWS V14.01,2013-02-01 10:26:00,
2013-02-01 05:31:00,33.5,24.4,29.84,West,275,0.0,6.0,69,0.00,,---,0.00,VWS V14.01,2013-02-01 10:31:00,
2013-02-01 05:36:00,33.3,24.2,29.84,West,281,1.0,2.0,69,0.00,,---,0.00,VWS V14.01,2013-02-01 10:36:00,
2013-02-01 05:41:00,33.3,24.6,29.85,SW,217,0.0,2.0,70,0.00,,---,0.00,VWS V14.01,2013-02-01 10:41:00,
2013-02-01 05:46:00,33.2,23.8,29.85,WNW,300,0.0,2.0,68,0.00,,---,0.00,VWS V14.01,2013-02-01 10:46:00,
2013-02-01 05:51:00,33.1,22.6,29.86,WNW,287,0.0,2.0,65,0.00,,---,0.00,VWS V14.01,2013-02-01 10:51:00,
2013-02-01 05:56:00,33.0,21.8,29.87,WSW,250,1.0,2.0,63,0.00,,---,0.00,VWS V14.01,2013-02-01 10:56:00,
2013-02-01 06:01:00,32.8,21.2,29.88,North,350,0.0,2.0,62,0.00,,---,0.00,VWS V14.01,2013-02-01 11:01:00,
2013-02-01 06:06:00,32.7,21.5,29.88,WNW,293,7.0,7.0,63,0.00,,---,0.00,VWS V14.01,2013-02-01 11:06:00,
2013-02-01 06:11:00,32.4,22.3,29.89,SSW,212,2.0,7.0,66,0.00,,---,0.00,VWS V14.01,2013-02-01 11:11:00,
2013-02-01 06:16:00,32.2,22.1,29.90,WNW,285,6.0,7.0,66,0.00,,---,0.00,VWS V14.01,2013-02-01 11:16:00,
2013-02-01 06:21:00,31.9,21.9,29.90,WNW,287,6.0,10.0,66,0.00,,---,0.00,VWS V14.01,2013-02-01 11:21:00,
2013-02-01 06:26:00,31.4,22.1,29.91,West,278,3.0,10.0,68,0.00,,---,0.00,VWS V14.01,2013-02-01 11:26:00,
2013-02-01 06:31:00,31.0,22.7,29.92,North,350,2.0,10.0,71,0.00,,---,0.00,VWS V14.01,2013-02-01 11:31:00,
2013-02-01 06:36:00,30.3,24.0,29.92,NNW,328,1.0,8.0,77,0.00,,---,0.00,VWS V14.01,2013-02-01 11:36:00,
2013-02-01 06:41:00,29.6,24.8,29.93,WNW,293,2.0,8.0,82,0.00,,---,0.00,VWS V14.01,2013-02-01 11:41:00,
2013-02-01 06:46:00,29.0,25.1,29.93,NW,318,2.0,8.0,85,0.00,,---,0.00,VWS V14.01,2013-02-01 11:46:00,
2013-02-01 06:51:00,28.7,25.3,29.93,NNW,329,2.0,8.0,87,0.00,,---,0.00,VWS V14.01,2013-02-01 11:51:00,
2013-02-01 06:56:00,28.6,25.8,29.94,WNW,298,0.0,8.0,89,0.00,,---,0.00,VWS V14.01,2013-02-01 11:56:00,
2013-02-01 07:01:00,28.3,25.5,29.94,WNW,284,3.0,8.0,89,0.00,,---,0.00,VWS V14.01,2013-02-01 12:01:00,
2013-02-01 07:06:00,27.6,24.0,29.95,NNW,329,5.0,9.0,86,0.00,,---,0.00,VWS V14.01,2013-02-01 12:06:00,
2013-02-01 07:11:00,27.3,23.7,29.95,North,358,1.0,9.0,86,0.00,,---,0.00,VWS V14.01,2013-02-01 12:11:00,
2013-02-01 07:16:00,27.3,23.4,29.95,WNW,284,3.0,9.0,85,0.00,,---,0.00,VWS V14.01,2013-02-01 12:16:00,
2013-02-01 07:21:00,27.4,23.5,29.95,North,354,1.0,9.0,85,0.00,,---,0.00,VWS V14.01,2013-02-01 12:21:00,
2013-02-01 07:26:00,27.5,23.0,29.95,West,274,3.0,9.0,83,0.00,,---,0.00,VWS V14.01,2013-02-01 12:26:00,
2013-02-01 07:31:00,27.5,22.5,29.95,WNW,285,2.0,9.0,81,0.00,,---,0.00,VWS V14.01,2013-02-01 12:31:00,
2013-02-01 07:36:00,27.7,22.6,29.95,West,274,1.0,5.0,81,0.00,,---,0.00,VWS V14.01,2013-02-01 12:36:00,
2013-02-01 07:41:00,27.8,22.4,29.96,NNE,22,1.0,5.0,80,0.00,,---,0.00,VWS V14.01,2013-02-01 12:41:00,
2013-02-01 07:46:00,28.0,22.3,29.97,West,275,1.0,6.0,79,0.00,,---,0.00,VWS V14.01,2013-02-01 12:46:00,
2013-02-01 07:51:00,28.0,22.0,29.97,West,264,1.0,11.0,78,0.00,,---,0.00,VWS V14.01,2013-02-01 12:51:00,
2013-02-01 07:56:00,28.0,21.7,29.98,NE,42,2.0,11.0,77,0.00,,---,0.00,VWS V14.01,2013-02-01 12:56:00,
2013-02-01 08:01:00,28.1,21.8,29.98,NW,306,2.0,11.0,77,0.00,,---,0.00,VWS V14.01,2013-02-01 13:01:00,
2013-02-01 08:06:00,28.1,21.5,29.98,WNW,286,2.0,6.0,76,0.00,,---,0.00,VWS V14.01,2013-02-01 13:06:00,
2013-02-01 08:11:00,28.0,21.1,29.99,West,271,2.0,7.0,75,0.00,,---,0.00,VWS V14.01,2013-02-01 13:11:00,
2013-02-01 08:16:00,28.0,20.8,29.99,West,267,1.0,7.0,74,0.00,,---,0.00,VWS V14.01,2013-02-01 13:16:00,
2013-02-01 08:21:00,28.1,20.2,29.99,NNW,338,1.0,9.0,72,0.00,,---,0.00,VWS V14.01,2013-02-01 13:21:00,
2013-02-01 08:26:00,28.1,20.2,29.99,West,274,3.0,10.0,72,0.00,,---,0.00,VWS V14.01,2013-02-01 13:26:00,
2013-02-01 08:31:00,28.1,20.6,30.00,WNW,289,3.0,10.0,73,0.00,,---,0.00,VWS V14.01,2013-02-01 13:31:00,
2013-02-01 08:36:00,27.9,21.3,30.01,WNW,290,3.0,8.0,76,0.00,,---,0.00,VWS V14.01,2013-02-01 13:36:00,
2013-02-01 08:41:00,27.4,22.0,30.01,West,275,1.0,8.0,80,0.00,,---,0.00,VWS V14.01,2013-02-01 13:41:00,
2013-02-01 08:46:00,27.2,21.9,30.02,NNE,27,3.0,8.0,80,0.00,,---,0.00,VWS V14.01,2013-02-01 13:46:00,
2013-02-01 08:51:00,27.3,19.8,30.03,WSW,252,2.0,9.0,73,0.00,,---,0.00,VWS V14.01,2013-02-01 13:51:00,
2013-02-01 08:56:00,27.3,17.5,30.03,NW,325,3.0,12.0,66,0.00,,---,0.00,VWS V14.01,2013-02-01 13:56:00,
2013-02-01 09:01:00,27.4,16.8,30.04,WSW,243,3.0,15.0,64,0.00,,---,0.00,VWS V14.01,2013-02-01 14:01:00,
2013-02-01 09:06:00,27.5,16.2,30.04,NW,311,3.0,9.0,62,0.00,,---,0.00,VWS V14.01,2013-02-01 14:06:00,
2013-02-01 09:11:00,27.6,16.7,30.05,NNE,18,4.0,11.0,63,0.00,,---,0.00,VWS V14.01,2013-02-01 14:11:00,
2013-02-01 09:16:00,27.6,16.3,30.05,NNW,335,1.0,12.0,62,0.00,,---,0.00,VWS V14.01,2013-02-01 14:16:00,
2013-02-01 09:21:00,27.5,15.1,30.06,NW,321,4.0,13.0,59,0.00,,---,0.00,VWS V14.01,2013-02-01 14:21:00,
2013-02-01 09:26:00,27.1,13.1,30.07,SSE,168,5.0,14.0,55,0.00,,---,0.00,VWS V14.01,2013-02-01 14:26:00,
2013-02-01 09:31:00,26.9,12.5,30.07,SSE,166,3.0,14.0,54,0.00,,---,0.00,VWS V14.01,2013-02-01 14:31:00,
2013-02-01 09:36:00,26.9,12.9,30.07,West,280,3.0,10.0,55,0.00,,---,0.00,VWS V14.01,2013-02-01 14:36:00,
2013-02-01 09:41:00,26.7,12.7,30.07,West,262,8.0,12.0,55,0.00,,---,0.00,VWS V14.01,2013-02-01 14:41:00,
2013-02-01 09:46:00,26.7,11.0,30.08,North,5,3.0,17.0,51,0.00,,---,0.00,VWS V14.01,2013-02-01 14:46:00,
2013-02-01 09:51:00,26.6,10.0,30.08,NE,44,3.0,17.0,49,0.00,,---,0.00,VWS V14.01,2013-02-01 14:51:00,
2013-02-01 09:56:00,26.9,10.8,30.09,NW,312,5.0,17.0,50,0.00,,---,0.00,VWS V14.01,2013-02-01 14:56:00,
2013-02-01 10:01:00,27.0,10.4,30.09,NW,326,6.0,17.0,49,0.00,,---,0.00,VWS V14.01,2013-02-01 15:01:00,
2013-02-01 10:06:00,27.1,9.1,30.09,WNW,285,5.0,12.0,46,0.00,,---,0.00,VWS V14.01,2013-02-01 15:06:00,
2013-02-01 10:11:00,27.1,10.0,30.10,WSW,240,3.0,12.0,48,0.00,,---,0.00,VWS V14.01,2013-02-01 15:11:00,
2013-02-01 10:16:00,27.5,9.4,30.10,WNW,301,8.0,12.0,46,0.00,,---,0.00,VWS V14.01,2013-02-01 15:16:00,
2013-02-01 10:21:00,27.4,9.4,30.10,East,86,4.0,12.0,46,0.00,,---,0.00,VWS V14.01,2013-02-01 15:21:00,
2013-02-01 10:26:00,27.2,8.7,30.10,WNW,300,7.0,15.0,45,0.00,,---,0.00,VWS V14.01,2013-02-01 15:26:00,
2013-02-01 10:31:00,27.3,9.3,30.11,WNW,288,1.0,15.0,46,0.00,,---,0.00,VWS V14.01,2013-02-01 15:31:00,
2013-02-01 10:36:00,27.5,9.4,30.11,NE,40,5.0,10.0,46,0.00,,---,0.00,VWS V14.01,2013-02-01 15:36:00,
2013-02-01 10:41:00,27.4,9.4,30.12,WNW,295,5.0,12.0,46,0.00,,---,0.00,VWS V14.01,2013-02-01 15:41:00,
2013-02-01 10:46:00,28.0,9.4,30.12,NNE,33,4.0,12.0,45,0.00,,---,0.00,VWS V14.01,2013-02-01 15:46:00,
2013-02-01 10:51:00,28.2,9.1,30.12,North,350,4.0,12.0,44,0.00,,---,0.00,VWS V14.01,2013-02-01 15:51:00,
2013-02-01 10:56:00,28.1,9.0,30.13,NNW,335,4.0,13.0,44,0.00,,---,0.00,VWS V14.01,2013-02-01 15:56:00,
2013-02-01 11:01:00,28.5,9.9,30.12,WSW,242,3.0,13.0,45,0.00,,---,0.00,VWS V14.01,2013-02-01 16:01:00,
2013-02-01 11:06:00,28.7,8.5,30.13,NW,306,2.0,9.0,42,0.00,,---,0.00,VWS V14.01,2013-02-01 16:06:00,
2013-02-01 11:11:00,28.2,7.5,30.14,WNW,295,4.0,12.0,41,0.00,,---,0.00,VWS V14.01,2013-02-01 16:11:00,
2013-02-01 11:16:00,28.3,8.7,30.14,WNW,298,8.0,12.0,43,0.00,,---,0.00,VWS V14.01,2013-02-01 16:16:00,
2013-02-01 11:21:00,28.2,7.5,30.15,NNW,347,1.0,12.0,41,0.00,,---,0.00,VWS V14.01,2013-02-01 16:21:00,
2013-02-01 11:26:00,28.0,7.4,30.15,NNW,348,9.0,12.0,41,0.00,,---,0.00,VWS V14.01,2013-02-01 16:26:00,
2013-02-01 11:31:00,27.5,6.9,30.16,WNW,295,4.0,12.0,41,0.00,,---,0.00,VWS V14.01,2013-02-01 16:31:00,
2013-02-01 11:36:00,27.2,7.2,30.16,NNE,32,3.0,8.0,42,0.00,,---,0.00,VWS V14.01,2013-02-01 16:36:00,
2013-02-01 11:41:00,27.1,8.1,30.17,NNW,344,7.0,8.0,44,0.00,,---,0.00,VWS V14.01,2013-02-01 16:41:00,
2013-02-01 11:46:00,26.9,7.9,30.16,SW,228,7.0,10.0,44,0.00,,---,0.00,VWS V14.01,2013-02-01 16:46:00,
2013-02-01 11:51:00,26.7,7.2,30.16,NW,321,3.0,10.0,43,0.00,,---,0.00,VWS V14.01,2013-02-01 16:51:00,
2013-02-01 11:55:00,27.1,7.1,30.16,SW,219,2.0,11.0,42,0.00,,---,0.00,VWS V14.01,2013-02-01 16:55:00,
2013-02-01 12:00:00,27.8,8.7,30.17,SSE,148,4.0,11.0,44,0.00,,---,0.00,VWS V14.01,2013-02-01 17:00:00,
2013-02-01 12:05:00,27.9,7.8,30.17,NNW,338,2.0,9.0,42,0.00,,---,0.00,VWS V14.01,2013-02-01 17:05:00,
2013-02-01 12:10:00,28.0,6.8,30.17,NW,310,2.0,21.0,40,0.00,,---,0.00,VWS V14.01,2013-02-01 17:10:00,
2013-02-01 12:15:00,27.9,6.7,30.17,North,11,5.0,21.0,40,0.00,,---,0.00,VWS V14.01,2013-02-01 17:15:00,
2013-02-01 12:20:00,28.0,7.9,30.17,West,259,8.0,21.0,42,0.00,,---,0.00,VWS V14.01,2013-02-01 17:20:00,
2013-02-01 12:25:00,27.8,7.7,30.17,WNW,290,6.0,21.0,42,0.00,,---,0.00,VWS V14.01,2013-02-01 17:25:00,
2013-02-01 12:30:00,27.6,8.0,30.17,WSW,245,6.0,21.0,43,0.00,,---,0.00,VWS V14.01,2013-02-01 17:30:00,
2013-02-01 12:35:00,27.8,8.2,30.17,WNW,293,7.0,10.0,43,0.00,,---,0.00,VWS V14.01,2013-02-01 17:35:00,
2013-02-01 12:40:00,27.9,8.3,30.18,WNW,285,4.0,10.0,43,0.00,,---,0.00,VWS V14.01,2013-02-01 17:40:00,
2013-02-01 12:45:00,27.7,7.6,30.18,South,179,3.0,11.0,42,0.00,,---,0.00,VWS V14.01,2013-02-01 17:45:00,
2013-02-01 12:50:00,27.8,7.7,30.18,NW,321,4.0,11.0,42,0.00,,---,0.00,VWS V14.01,2013-02-01 17:50:00,
2013-02-01 12:55:00,28.3,8.7,30.18,WNW,288,6.0,11.0,43,0.00,,---,0.00,VWS V14.01,2013-02-01 17:55:00,
2013-02-01 13:00:00,28.2,8.1,30.18,WNW,298,10.0,17.0,42,0.00,,---,0.00,VWS V14.01,2013-02-01 18:00:00,
2013-02-01 13:05:00,27.4,6.8,30.19,SSW,204,1.0,10.0,41,0.00,,---,0.00,VWS V14.01,2013-02-01 18:05:00,
2013-02-01 13:10:00,27.6,8.6,30.19,West,277,8.0,12.0,44,0.00,,---,0.00,VWS V14.01,2013-02-01 18:10:00,
2013-02-01 13:15:00,27.7,7.1,30.19,WNW,298,4.0,12.0,41,0.00,,---,0.00,VWS V14.01,2013-02-01 18:15:00,
2013-02-01 13:20:00,28.2,8.1,30.19,WNW,290,6.0,12.0,42,0.00,,---,0.00,VWS V14.01,2013-02-01 18:20:00,
2013-02-01 13:25:00,28.1,7.4,30.19,WSW,255,3.0,14.0,41,0.00,,---,0.00,VWS V14.01,2013-02-01 18:25:00,
2013-02-01 13:30:00,27.7,7.1,30.19,NW,320,7.0,14.0,41,0.00,,---,0.00,VWS V14.01,2013-02-01 18:30:00,
2013-02-01 13:35:00,27.1,6.5,30.19,WNW,293,5.0,5.0,41,0.00,,---,0.00,VWS V14.01,2013-02-01 18:35:00,
2013-02-01 13:40:00,27.0,6.4,30.19,WNW,293,3.0,10.0,41,0.00,,---,0.00,VWS V14.01,2013-02-01 18:40:00,
2013-02-01 13:45:00,26.8,6.3,30.19,NW,318,2.0,11.0,41,0.00,,---,0.00,VWS V14.01,2013-02-01 18:45:00,
2013-02-01 13:50:00,27.4,7.9,30.19,NW,309,4.0,11.0,43,0.00,,---,0.00,VWS V14.01,2013-02-01 18:50:00,
2013-02-01 13:55:00,27.7,7.1,30.20,WNW,289,2.0,11.0,41,0.00,,---,0.00,VWS V14.01,2013-02-01 18:55:00,
2013-02-01 14:00:00,27.3,7.2,30.20,SSW,210,4.0,11.0,42,0.00,,---,0.00,VWS V14.01,2013-02-01 19:00:00,
2013-02-01 14:05:00,27.4,6.8,30.19,WNW,295,5.0,8.0,41,0.00,,---,0.00,VWS V14.01,2013-02-01 19:05:00,
2013-02-01 14:10:00,28.3,7.6,30.20,WNW,284,2.0,8.0,41,0.00,,---,0.00,VWS V14.01,2013-02-01 19:10:00,
2013-02-01 14:15:00,28.6,7.3,30.20,WNW,284,3.0,8.0,40,0.00,,---,0.00,VWS V14.01,2013-02-01 19:15:00,
2013-02-01 14:20:00,28.9,7.6,30.20,WNW,291,3.0,8.0,40,0.00,,---,0.00,VWS V14.01,2013-02-01 19:20:00,
2013-02-01 14:25:00,28.7,6.3,30.20,SE,132,1.0,8.0,38,0.00,,---,0.00,VWS V14.01,2013-02-01 19:25:00,
2013-02-01 14:30:00,28.4,6.1,30.21,South,170,3.0,11.0,38,0.00,,---,0.00,VWS V14.01,2013-02-01 19:30:00,
2013-02-01 14:35:00,27.7,4.8,30.21,North,352,2.0,11.0,37,0.00,,---,0.00,VWS V14.01,2013-02-01 19:35:00,
2013-02-01 14:40:00,27.7,5.4,30.20,SW,231,6.0,12.0,38,0.00,,---,0.00,VWS V14.01,2013-02-01 19:40:00,
2013-02-01 14:45:00,27.7,5.4,30.21,WNW,295,5.0,14.0,38,0.00,,---,0.00,VWS V14.01,2013-02-01 19:45:00,
2013-02-01 14:50:00,27.7,4.8,30.21,WNW,284,2.0,14.0,37,0.00,,---,0.00,VWS V14.01,2013-02-01 19:50:00,
2013-02-01 14:55:00,27.7,5.4,30.21,WSW,240,3.0,14.0,38,0.00,,---,0.00,VWS V14.01,2013-02-01 19:55:00,
2013-02-01 15:00:00,27.3,5.1,30.22,WNW,295,8.0,14.0,38,0.00,,---,0.00,VWS V14.01,2013-02-01 20:00:00,
2013-02-01 15:05:00,26.9,4.7,30.22,NW,326,6.0,12.0,38,0.00,,---,0.00,VWS V14.01,2013-02-01 20:05:00,
2013-02-01 15:10:00,27.3,6.2,30.22,ENE,63,2.0,13.0,40,0.00,,---,0.00,VWS V14.01,2013-02-01 20:10:00,
2013-02-01 15:15:00,27.5,5.2,30.23,NNW,329,2.0,14.0,38,0.00,,---,0.00,VWS V14.01,2013-02-01 20:15:00,
2013-02-01 15:20:00,27.5,5.2,30.23,WNW,291,3.0,14.0,38,0.00,,---,0.00,VWS V14.01,2013-02-01 20:20:00,
2013-02-01 15:25:00,27.9,6.7,30.23,WNW,300,4.0,14.0,40,0.00,,---,0.00,VWS V14.01,2013-02-01 20:25:00,
2013-02-01 15:30:00,27.9,6.7,30.23,WNW,285,4.0,14.0,40,0.00,,---,0.00,VWS V14.01,2013-02-01 20:30:00,
2013-02-01 15:35:00,27.8,4.9,30.23,West,262,1.0,11.0,37,0.00,,---,0.00,VWS V14.01,2013-02-01 20:35:00,
2013-02-01 15:40:00,27.6,4.8,30.24,ENE,69,8.0,14.0,37,0.00,,---,0.00,VWS V14.01,2013-02-01 20:40:00,
2013-02-01 15:45:00,27.6,4.8,30.24,NNW,336,3.0,14.0,37,0.00,,---,0.00,VWS V14.01,2013-02-01 20:45:00,
2013-02-01 15:50:00,27.9,5.0,30.24,ENE,58,2.0,14.0,37,0.00,,---,0.00,VWS V14.01,2013-02-01 20:50:00,
2013-02-01 15:55:00,27.8,5.5,30.25,ENE,60,5.0,14.0,38,0.00,,---,0.00,VWS V14.01,2013-02-01 20:55:00,
2013-02-01 16:00:00,28.2,5.9,30.25,SSW,212,1.0,14.0,38,0.00,,---,0.00,VWS V14.01,2013-02-01 21:00:00,
2013-02-01 16:05:00,28.3,5.4,30.25,WSW,249,4.0,8.0,37,0.00,,---,0.00,VWS V14.01,2013-02-01 21:05:00,
2013-02-01 16:10:00,28.2,5.9,30.25,ESE,106,2.0,10.0,38,0.00,,---,0.00,VWS V14.01,2013-02-01 21:10:00,
2013-02-01 16:15:00,28.0,5.1,30.25,NNE,32,3.0,14.0,37,0.00,,---,0.00,VWS V14.01,2013-02-01 21:15:00,
2013-02-01 16:20:00,27.8,5.5,30.26,NW,315,5.0,17.0,38,0.00,,---,0.00,VWS V14.01,2013-02-01 21:20:00,
2013-02-01 16:25:00,27.4,4.6,30.26,West,273,3.0,17.0,37,0.00,,---,0.00,VWS V14.01,2013-02-01 21:25:00,
2013-02-01 16:30:00,27.0,4.8,30.26,West,271,2.0,17.0,38,0.00,,---,0.00,VWS V14.01,2013-02-01 21:30:00,
2013-02-01 16:35:00,26.7,5.1,30.27,West,271,4.0,9.0,39,0.00,,---,0.00,VWS V14.01,2013-02-01 21:35:00,
2013-02-01 16:40:00,26.5,5.5,30.27,SE,134,1.0,9.0,40,0.00,,---,0.00,VWS V14.01,2013-02-01 21:40:00,
2013-02-01 16:45:00,26.5,5.5,30.27,ESE,106,1.0,9.0,40,0.00,,---,0.00,VWS V14.01,2013-02-01 21:45:00,
2013-02-01 16:50:00,25.9,4.9,30.28,WSW,239,6.0,11.0,40,0.00,,---,0.00,VWS V14.01,2013-02-01 21:50:00,
2013-02-01 16:55:00,25.7,4.7,30.27,South,183,4.0,11.0,40,0.00,,---,0.00,VWS V14.01,2013-02-01 21:55:00,
2013-02-01 17:00:00,25.4,5.0,30.28,WNW,284,2.0,11.0,41,0.00,,---,0.00,VWS V14.01,2013-02-01 22:00:00,
2013-02-01 17:05:00,25.3,4.9,30.28,WNW,285,5.0,14.0,41,0.00,,---,0.00,VWS V14.01,2013-02-01 22:05:00,
2013-02-01 17:10:00,25.1,4.7,30.28,WNW,300,3.0,14.0,41,0.00,,---,0.00,VWS V14.01,2013-02-01 22:10:00,
2013-02-01 17:15:00,25.0,5.2,30.29,North,351,3.0,14.0,42,0.00,,---,0.00,VWS V14.01,2013-02-01 22:15:00,
2013-02-01 17:20:00,24.9,4.5,30.29,NW,306,2.0,14.0,41,0.00,,---,0.00,VWS V14.01,2013-02-01 22:20:00,
2013-02-01 17:25:00,24.7,3.8,30.29,South,181,2.0,14.0,40,0.00,,---,0.00,VWS V14.01,2013-02-01 22:25:00,
2013-02-01 17:30:00,24.6,4.3,30.30,South,181,1.0,14.0,41,0.00,,---,0.00,VWS V14.01,2013-02-01 22:30:00,
2013-02-01 17:35:00,24.5,4.7,30.31,WNW,288,2.0,5.0,42,0.00,,---,0.00,VWS V14.01,2013-02-01 22:35:00,
2013-02-01 17:40:00,24.3,4.0,30.31,NW,326,0.0,7.0,41,0.00,,---,0.00,VWS V14.01,2013-02-01 22:40:00,
2013-02-01 17:45:00,24.2,4.4,30.31,West,259,4.0,7.0,42,0.00,,---,0.00,VWS V14.01,2013-02-01 22:45:00,
2013-02-01 17:50:00,24.1,4.3,30.32,NNW,329,4.0,7.0,42,0.00,,---,0.00,VWS V14.01,2013-02-01 22:50:00,
2013-02-01 17:55:00,24.0,4.8,30.32,West,262,1.0,8.0,43,0.00,,---,0.00,VWS V14.01,2013-02-01 22:55:00,
2013-02-01 18:00:00,24.0,4.8,30.32,West,274,2.0,8.0,43,0.00,,---,0.00,VWS V14.01,2013-02-01 23:00:00,
2013-02-01 18:05:00,23.9,4.7,30.32,SSE,166,5.0,7.0,43,0.00,,---,0.00,VWS V14.01,2013-02-01 23:05:00,
2013-02-01 18:10:00,23.8,4.6,30.33,NW,309,2.0,7.0,43,0.00,,---,0.00,VWS V14.01,2013-02-01 23:10:00,
2013-02-01 18:15:00,23.7,4.5,30.33,NW,325,2.0,11.0,43,0.00,,---,0.00,VWS V14.01,2013-02-01 23:15:00,
2013-02-01 18:20:00,23.6,4.4,30.33,WNW,285,3.0,11.0,43,0.00,,---,0.00,VWS V14.01,2013-02-01 23:20:00,
2013-02-01 18:25:00,23.5,4.8,30.33,West,271,1.0,11.0,44,0.00,,---,0.00,VWS V14.01,2013-02-01 23:25:00,
2013-02-01 18:30:00,23.5,4.8,30.34,NNW,342,4.0,11.0,44,0.00,,---,0.00,VWS V14.01,2013-02-01 23:30:00,
2013-02-01 18:35:00,23.4,4.2,30.34,NNE,23,0.0,6.0,43,0.00,,---,0.00,VWS V14.01,2013-02-01 23:35:00,
2013-02-01 18:40:00,23.2,4.5,30.34,NW,306,0.0,6.0,44,0.00,,---,0.00,VWS V14.01,2013-02-01 23:40:00,
2013-02-01 18:45:00,23.1,4.9,30.34,NW,316,2.0,6.0,45,0.00,,---,0.00,VWS V14.01,2013-02-01 23:45:00,
2013-02-01 18:50:00,23.1,4.4,30.35,WSW,246,1.0,6.0,44,0.00,,---,0.00,VWS V14.01,2013-02-01 23:50:00,
2013-02-01 18:55:00,23.0,4.8,30.35,North,356,2.0,6.0,45,0.00,,---,0.00,VWS V14.01,2013-02-01 23:55:00,
2013-02-01 19:00:00,22.9,4.3,30.35,WNW,293,3.0,8.0,44,0.00,,---,0.00,VWS V14.01,2013-02-02 00:00:00,
2013-02-01 19:05:00,22.9,4.3,30.35,WSW,255,1.0,5.0,44,0.00,,---,0.00,VWS V14.01,2013-02-02 00:05:00,
2013-02-01 19:10:00,22.8,4.2,30.35,SW,222,1.0,8.0,44,0.00,,---,0.00,VWS V14.01,2013-02-02 00:10:00,
2013-02-01 19:15:00,22.7,4.6,30.35,WNW,287,2.0,8.0,45,0.00,,---,0.00,VWS V14.01,2013-02-02 00:15:00,
2013-02-01 19:20:00,22.7,4.1,30.36,West,262,0.0,8.0,44,0.00,,---,0.00,VWS V14.01,2013-02-02 00:20:00,
2013-02-01 19:25:00,22.6,4.5,30.36,East,84,0.0,8.0,45,0.00,,---,0.00,VWS V14.01,2013-02-02 00:25:00,
2013-02-01 19:30:00,22.4,3.8,30.36,SW,233,2.0,8.0,44,0.00,,---,0.00,VWS V14.01,2013-02-02 00:30:00,
2013-02-01 19:35:00,22.4,4.3,30.36,NW,315,1.0,4.0,45,0.00,,---,0.00,VWS V14.01,2013-02-02 00:35:00,
2013-02-01 19:40:00,22.3,4.2,30.37,WNW,287,1.0,4.0,45,0.00,,---,0.00,VWS V14.01,2013-02-02 00:40:00,
2013-02-01 19:45:00,22.2,3.6,30.37,WNW,290,1.0,7.0,44,0.00,,---,0.00,VWS V14.01,2013-02-02 00:45:00,
2013-02-01 19:50:00,22.2,4.1,30.37,WNW,291,1.0,7.0,45,0.00,,---,0.00,VWS V14.01,2013-02-02 00:50:00,
2013-02-01 19:55:00,22.1,4.0,30.36,WNW,294,3.0,7.0,45,0.00,,---,0.00,VWS V14.01,2013-02-02 00:55:00,
2013-02-01 20:00:00,22.1,4.0,30.36,WNW,298,5.0,8.0,45,0.00,,---,0.00,VWS V14.01,2013-02-02 01:00:00,
2013-02-01 20:05:00,22.1,4.5,30.37,NW,314,3.0,5.0,46,0.00,,---,0.00,VWS V14.01,2013-02-02 01:05:00,
2013-02-01 20:10:00,22.0,3.9,30.37,SE,129,3.0,6.0,45,0.00,,---,0.00,VWS V14.01,2013-02-02 01:10:00,
2013-02-01 20:15:00,21.9,3.8,30.37,WSW,253,1.0,6.0,45,0.00,,---,0.00,VWS V14.01,2013-02-02 01:15:00,
2013-02-01 20:20:00,21.9,3.8,30.38,SW,217,3.0,9.0,45,0.00,,---,0.00,VWS V14.01,2013-02-02 01:20:00,
2013-02-01 20:25:00,21.9,4.3,30.38,West,267,2.0,9.0,46,0.00,,---,0.00,VWS V14.01,2013-02-02 01:25:00,
2013-02-01 20:30:00,21.8,4.2,30.38,West,267,3.0,9.0,46,0.00,,---,0.00,VWS V14.01,2013-02-02 01:30:00,
2013-02-01 20:35:00,21.8,4.2,30.38,WNW,287,1.0,4.0,46,0.00,,---,0.00,VWS V14.01,2013-02-02 01:35:00,
2013-02-01 20:40:00,21.7,4.1,30.38,WNW,288,2.0,6.0,46,0.00,,---,0.00,VWS V14.01,2013-02-02 01:40:00,
2013-02-01 20:45:00,21.7,4.1,30.38,WSW,246,1.0,6.0,46,0.00,,---,0.00,VWS V14.01,2013-02-02 01:45:00,
2013-02-01 20:50:00,21.6,4.5,30.38,NNW,333,3.0,9.0,47,0.00,,---,0.00,VWS V14.01,2013-02-02 01:50:00,
2013-02-01 20:55:00,21.6,4.5,30.38,West,279,3.0,9.0,47,0.00,,---,0.00,VWS V14.01,2013-02-02 01:55:00,
2013-02-01 21:00:00,21.5,4.9,30.38,WNW,284,2.0,9.0,48,0.00,,---,0.00,VWS V14.01,2013-02-02 02:00:00,
2013-02-01 21:05:00,21.5,4.4,30.38,WNW,300,1.0,3.0,47,0.00,,---,0.00,VWS V14.01,2013-02-02 02:05:00,
2013-02-01 21:10:00,21.4,4.8,30.39,ESE,115,0.0,3.0,48,0.00,,---,0.00,VWS V14.01,2013-02-02 02:10:00,
2013-02-01 21:15:00,21.2,5.0,30.39,West,263,3.0,5.0,49,0.00,,---,0.00,VWS V14.01,2013-02-02 02:15:00,
2013-02-01 21:20:00,21.2,5.0,30.39,West,277,2.0,5.0,49,0.00,,---,0.00,VWS V14.01,2013-02-02 02:20:00,
2013-02-01 21:25:00,21.1,4.5,30.40,WNW,291,3.0,7.0,48,0.00,,---,0.00,VWS V14.01,2013-02-02 02:25:00,
2013-02-01 21:30:00,21.1,4.5,30.39,NNW,331,1.0,7.0,48,0.00,,---,0.00,VWS V14.01,2013-02-02 02:30:00,
2013-02-01 21:35:00,21.0,4.8,30.39,NW,309,1.0,4.0,49,0.00,,---,0.00,VWS V14.01,2013-02-02 02:35:00,
2013-02-01 21:40:00,20.9,4.8,30.40,WNW,288,0.0,5.0,49,0.00,,---,0.00,VWS V14.01,2013-02-02 02:40:00,
2013-02-01 21:45:00,20.8,5.5,30.40,West,264,1.0,5.0,51,0.00,,---,0.00,VWS V14.01,2013-02-02 02:45:00,
2013-02-01 21:50:00,20.7,4.6,30.40,ESE,105,0.0,5.0,49,0.00,,---,0.00,VWS V14.01,2013-02-02 02:50:00,
2013-02-01 21:55:00,20.6,4.9,30.41,NNW,333,1.0,7.0,50,0.00,,---,0.00,VWS V14.01,2013-02-02 02:55:00,
2013-02-01 22:00:00,20.6,4.9,30.41,West,271,1.0,7.0,50,0.00,,---,0.00,VWS V14.01,2013-02-02 03:00:00,
2013-02-01 22:05:00,20.4,4.7,30.41,SW,222,1.0,3.0,50,0.00,,---,0.00,VWS V14.01,2013-02-02 03:05:00,
2013-02-01 22:10:00,20.4,4.3,30.40,West,263,1.0,4.0,49,0.00,,---,0.00,VWS V14.01,2013-02-02 03:10:00,
2013-02-01 22:15:00,20.4,4.7,30.40,WNW,298,2.0,4.0,50,0.00,,---,0.00,VWS V14.01,2013-02-02 03:15:00,
2013-02-01 22:20:00,20.4,4.3,30.40,WNW,284,2.0,8.0,49,0.00,,---,0.00,VWS V14.01,2013-02-02 03:20:00,
2013-02-01 22:25:00,20.3,4.2,30.40,WNW,287,3.0,8.0,49,0.00,,---,0.00,VWS V14.01,2013-02-02 03:25:00,
2013-02-01 22:30:00,20.2,4.6,30.41,WNW,288,2.0,8.0,50,0.00,,---,0.00,VWS V14.01,2013-02-02 03:30:00,
2013-02-01 22:35:00,20.2,4.1,30.41,West,270,2.0,4.0,49,0.00,,---,0.00,VWS V14.01,2013-02-02 03:35:00,
2013-02-01 22:40:00,20.2,4.1,30.42,West,271,1.0,4.0,49,0.00,,---,0.00,VWS V14.01,2013-02-02 03:40:00,
2013-02-01 22:45:00,20.1,4.5,30.42,West,271,0.0,4.0,50,0.00,,---,0.00,VWS V14.01,2013-02-02 03:45:00,
2013-02-01 22:50:00,20.0,4.8,30.42,West,277,2.0,4.0,51,0.00,,---,0.00,VWS V14.01,2013-02-02 03:50:00,
2013-02-01 22:55:00,20.0,4.8,30.41,NNW,328,2.0,4.0,51,0.00,,---,0.00,VWS V14.01,2013-02-02 03:55:00,
2013-02-01 23:00:00,19.9,5.1,30.41,West,280,3.0,4.0,52,0.00,,---,0.00,VWS V14.01,2013-02-02 04:00:00,
2013-02-01 23:05:00,19.8,5.0,30.42,NW,309,3.0,4.0,52,0.00,,---,0.00,VWS V14.01,2013-02-02 04:05:00,
2013-02-01 23:10:00,19.7,4.9,30.42,WSW,239,0.0,4.0,52,0.00,,---,0.00,VWS V14.01,2013-02-02 04:10:00,
2013-02-01 23:15:00,19.7,4.9,30.43,West,267,0.0,6.0,52,0.00,,---,0.00,VWS V14.01,2013-02-02 04:15:00,
2013-02-01 23:20:00,19.6,4.8,30.43,NW,304,0.0,6.0,52,0.00,,---,0.00,VWS V14.01,2013-02-02 04:20:00,
2013-02-01 23:25:00,19.6,4.8,30.43,NW,311,2.0,6.0,52,0.00,,---,0.00,VWS V14.01,2013-02-02 04:25:00,
2013-02-01 23:30:00,19.5,4.8,30.43,WSW,255,0.0,6.0,52,0.00,,---,0.00,VWS V14.01,2013-02-02 04:30:00,
2013-02-01 23:35:00,19.4,4.7,30.42,NW,304,1.0,4.0,52,0.00,,---,0.00,VWS V14.01,2013-02-02 04:35:00,
2013-02-01 23:40:00,19.4,4.7,30.43,WNW,293,0.0,4.0,52,0.00,,---,0.00,VWS V14.01,2013-02-02 04:40:00,
2013-02-01 23:45:00,19.2,5.3,30.43,WNW,295,0.0,4.0,54,0.00,,---,0.00,VWS V14.01,2013-02-02 04:45:00,
2013-02-01 23:50:00,19.1,4.8,30.43,North,354,2.0,4.0,53,0.00,,---,0.00,VWS V14.01,2013-02-02 04:50:00,
2013-02-01 23:55:00,19.1,4.8,30.43,NW,307,0.0,4.0,53,0.00,,---,0.00,VWS V14.01,2013-02-02 04:55:00,